sensor_id;sensor_type;location;lat;lon;timestamp;temperature;humidity
2723;DHT22;1369;53.216;10.396;2022-10-28T00:00:45;12.60;99.90
2723;DHT22;1369;53.216;10.396;2022-10-28T00:03:10;12.60;99.90
2723;DHT22;1369;53.216;10.396;2022-10-28T00:05:36;12.60;99.90
2723;DHT22;1369;53.216;10.396;2022-10-28T00:08:01;12.60;99.90
2723;DHT22;1369;53.216;10.396;2022-10-28T00:10:27;12.60;99.90
2723;DHT22;1369;53.216;10.396;2022-10-28T00:12:52;12.70;99.90
2723;DHT22;1369;53.216;10.396;2022-10-28T00:15:18;12.60;99.90
2723;DHT22;1369;53.216;10.396;2022-10-28T00:17:43;12.60;99.90
2723;DHT22;1369;53.216;10.396;2022-10-28T00:20:09;12.60;99.90
2723;DHT22;1369;53.216;10.396;2022-10-28T00:22:34;12.50;99.90
2723;DHT22;1369;53.216;10.396;2022-10-28T00:25:00;12.50;99.90
2723;DHT22;1369;53.216;10.396;2022-10-28T00:27:25;12.50;99.90
2723;DHT22;1369;53.216;10.396;2022-10-28T00:29:51;12.50;99.90
2723;DHT22;1369;53.216;10.396;2022-10-28T00:32:16;12.50;99.90
2723;DHT22;1369;53.216;10.396;2022-10-28T00:34:42;12.50;99.90
2723;DHT22;1369;53.216;10.396;2022-10-28T00:37:07;12.50;99.90
2723;DHT22;1369;53.216;10.396;2022-10-28T00:39:33;12.60;99.90
2723;DHT22;1369;53.216;10.396;2022-10-28T00:41:59;12.60;99.90
2723;DHT22;1369;53.216;10.396;2022-10-28T00:44:48;12.60;99.90
2723;DHT22;1369;53.216;10.396;2022-10-28T00:50:37;12.70;99.90
2723;DHT22;1369;53.216;10.396;2022-10-28T00:53:08;12.80;99.90
2723;DHT22;1369;53.216;10.396;2022-10-28T00:55:35;12.80;99.90
2723;DHT22;1369;53.216;10.396;2022-10-28T00:58:01;12.90;99.90
2723;DHT22;1369;53.216;10.396;2022-10-28T01:00:28;12.90;99.90
2723;DHT22;1369;53.216;10.396;2022-10-28T01:02:54;12.90;99.90
2723;DHT22;1369;53.216;10.396;2022-10-28T01:05:22;12.90;99.90
2723;DHT22;1369;53.216;10.396;2022-10-28T01:07:50;12.80;99.90
2723;DHT22;1369;53.216;10.396;2022-10-28T01:10:16;12.80;99.90
2723;DHT22;1369;53.216;10.396;2022-10-28T01:24:52;12.80;99.90
2723;DHT22;1369;53.216;10.396;2022-10-28T01:30:11;12.90;99.90
2723;DHT22;1369;53.216;10.396;2022-10-28T01:32:54;12.90;99.90
2723;DHT22;1369;53.216;10.396;2022-10-28T01:35:46;12.90;99.90
2723;DHT22;1369;53.216;10.396;2022-10-28T01:41:18;12.90;99.90
2723;DHT22;1369;53.216;10.396;2022-10-28T01:44:08;12.90;99.90
2723;DHT22;1369;53.216;10.396;2022-10-28T01:49:18;12.90;99.90
2723;DHT22;1369;53.216;10.396;2022-10-28T01:51:48;12.90;99.90
2723;DHT22;1369;53.216;10.396;2022-10-28T01:54:19;12.90;99.90
2723;DHT22;1369;53.216;10.396;2022-10-28T01:56:47;13.00;99.90
2723;DHT22;1369;53.216;10.396;2022-10-28T01:59:16;13.00;99.90
2723;DHT22;1369;53.216;10.396;2022-10-28T02:01:43;13.00;99.90
2723;DHT22;1369;53.216;10.396;2022-10-28T02:04:08;13.00;99.90
2723;DHT22;1369;53.216;10.396;2022-10-28T02:06:36;13.00;99.90
2723;DHT22;1369;53.216;10.396;2022-10-28T02:09:28;13.00;99.90
2723;DHT22;1369;53.216;10.396;2022-10-28T02:12:11;13.00;99.90
2723;DHT22;1369;53.216;10.396;2022-10-28T02:17:43;13.00;99.90
2723;DHT22;1369;53.216;10.396;2022-10-28T02:23:44;13.10;99.90
2723;DHT22;1369;53.216;10.396;2022-10-28T02:31:22;13.10;99.90
2723;DHT22;1369;53.216;10.396;2022-10-28T02:33:53;13.10;99.90
2723;DHT22;1369;53.216;10.396;2022-10-28T02:36:21;13.10;99.90
2723;DHT22;1369;53.216;10.396;2022-10-28T02:38:49;13.10;99.90
2723;DHT22;1369;53.216;10.396;2022-10-28T02:41:39;13.10;99.90
2723;DHT22;1369;53.216;10.396;2022-10-28T02:44:11;13.10;99.90
2723;DHT22;1369;53.216;10.396;2022-10-28T02:46:41;13.10;99.90
2723;DHT22;1369;53.216;10.396;2022-10-28T02:49:10;13.10;99.90
2723;DHT22;1369;53.216;10.396;2022-10-28T02:54:19;13.10;99.90
2723;DHT22;1369;53.216;10.396;2022-10-28T02:59:23;13.10;99.90
2723;DHT22;1369;53.216;10.396;2022-10-28T03:01:49;13.00;99.90
2723;DHT22;1369;53.216;10.396;2022-10-28T03:04:15;13.00;99.90
2723;DHT22;1369;53.216;10.396;2022-10-28T03:06:40;12.90;99.90
2723;DHT22;1369;53.216;10.396;2022-10-28T03:09:06;12.90;99.90
2723;DHT22;1369;53.216;10.396;2022-10-28T03:11:31;12.80;99.90
2723;DHT22;1369;53.216;10.396;2022-10-28T03:13:57;12.80;99.90
2723;DHT22;1369;53.216;10.396;2022-10-28T03:16:22;12.70;99.90
2723;DHT22;1369;53.216;10.396;2022-10-28T03:18:48;12.70;99.90
2723;DHT22;1369;53.216;10.396;2022-10-28T03:21:13;12.70;99.90
2723;DHT22;1369;53.216;10.396;2022-10-28T03:23:39;12.60;99.90
2723;DHT22;1369;53.216;10.396;2022-10-28T03:26:05;12.60;99.90
2723;DHT22;1369;53.216;10.396;2022-10-28T03:28:30;12.50;99.90
2723;DHT22;1369;53.216;10.396;2022-10-28T03:30:56;12.50;99.90
2723;DHT22;1369;53.216;10.396;2022-10-28T03:33:21;12.50;99.90
2723;DHT22;1369;53.216;10.396;2022-10-28T03:35:46;12.50;99.90
2723;DHT22;1369;53.216;10.396;2022-10-28T03:38:12;12.40;99.90
2723;DHT22;1369;53.216;10.396;2022-10-28T03:40:37;12.40;99.90
2723;DHT22;1369;53.216;10.396;2022-10-28T03:43:03;12.40;99.90
2723;DHT22;1369;53.216;10.396;2022-10-28T03:45:28;12.30;99.90
2723;DHT22;1369;53.216;10.396;2022-10-28T03:47:54;12.40;99.90
2723;DHT22;1369;53.216;10.396;2022-10-28T03:50:19;12.40;99.90
2723;DHT22;1369;53.216;10.396;2022-10-28T03:52:45;12.30;99.90
2723;DHT22;1369;53.216;10.396;2022-10-28T03:55:10;12.40;99.90
2723;DHT22;1369;53.216;10.396;2022-10-28T03:57:36;12.40;99.90
2723;DHT22;1369;53.216;10.396;2022-10-28T04:00:03;12.40;99.90
2723;DHT22;1369;53.216;10.396;2022-10-28T04:02:29;12.40;99.90
2723;DHT22;1369;53.216;10.396;2022-10-28T04:04:54;12.40;99.90
2723;DHT22;1369;53.216;10.396;2022-10-28T04:07:20;12.40;99.90
2723;DHT22;1369;53.216;10.396;2022-10-28T04:09:45;12.40;99.90
2723;DHT22;1369;53.216;10.396;2022-10-28T04:12:14;12.40;99.90
2723;DHT22;1369;53.216;10.396;2022-10-28T04:14:39;12.40;99.90
2723;DHT22;1369;53.216;10.396;2022-10-28T04:17:05;12.30;99.90
2723;DHT22;1369;53.216;10.396;2022-10-28T04:19:30;12.20;99.90
2723;DHT22;1369;53.216;10.396;2022-10-28T04:21:56;12.20;99.90
2723;DHT22;1369;53.216;10.396;2022-10-28T04:24:21;12.20;99.90
2723;DHT22;1369;53.216;10.396;2022-10-28T04:26:46;12.20;99.90
2723;DHT22;1369;53.216;10.396;2022-10-28T04:29:12;12.20;99.90
2723;DHT22;1369;53.216;10.396;2022-10-28T04:31:37;12.20;99.90
2723;DHT22;1369;53.216;10.396;2022-10-28T04:34:03;12.30;99.90
2723;DHT22;1369;53.216;10.396;2022-10-28T04:36:28;12.30;99.90
2723;DHT22;1369;53.216;10.396;2022-10-28T04:38:54;12.40;99.90
2723;DHT22;1369;53.216;10.396;2022-10-28T04:41:19;12.30;99.90
2723;DHT22;1369;53.216;10.396;2022-10-28T04:43:45;12.40;99.90
2723;DHT22;1369;53.216;10.396;2022-10-28T04:46:10;12.40;99.90
2723;DHT22;1369;53.216;10.396;2022-10-28T04:48:36;12.40;99.90
2723;DHT22;1369;53.216;10.396;2022-10-28T04:51:01;12.40;99.90
2723;DHT22;1369;53.216;10.396;2022-10-28T04:53:27;12.50;99.90
2723;DHT22;1369;53.216;10.396;2022-10-28T04:55:58;12.50;99.90
2723;DHT22;1369;53.216;10.396;2022-10-28T04:58:25;12.60;99.90
2723;DHT22;1369;53.216;10.396;2022-10-28T05:00:50;12.60;99.90
2723;DHT22;1369;53.216;10.396;2022-10-28T05:03:16;12.60;99.90
2723;DHT22;1369;53.216;10.396;2022-10-28T05:05:41;12.60;99.90
2723;DHT22;1369;53.216;10.396;2022-10-28T05:08:07;12.60;99.90
2723;DHT22;1369;53.216;10.396;2022-10-28T05:10:32;12.60;99.90
2723;DHT22;1369;53.216;10.396;2022-10-28T05:12:58;12.60;99.90
2723;DHT22;1369;53.216;10.396;2022-10-28T05:15:24;12.60;99.90
2723;DHT22;1369;53.216;10.396;2022-10-28T05:17:51;12.60;99.90
2723;DHT22;1369;53.216;10.396;2022-10-28T05:20:18;12.60;99.90
2723;DHT22;1369;53.216;10.396;2022-10-28T05:22:46;12.60;99.90
2723;DHT22;1369;53.216;10.396;2022-10-28T05:25:12;12.60;99.90
2723;DHT22;1369;53.216;10.396;2022-10-28T05:27:37;12.60;99.90
2723;DHT22;1369;53.216;10.396;2022-10-28T05:30:03;12.60;99.90
2723;DHT22;1369;53.216;10.396;2022-10-28T05:32:29;12.60;99.90
2723;DHT22;1369;53.216;10.396;2022-10-28T05:34:54;12.60;99.90
2723;DHT22;1369;53.216;10.396;2022-10-28T05:37:20;12.60;99.90
2723;DHT22;1369;53.216;10.396;2022-10-28T05:39:45;12.60;99.90
2723;DHT22;1369;53.216;10.396;2022-10-28T05:42:11;12.60;99.90
2723;DHT22;1369;53.216;10.396;2022-10-28T05:44:36;12.60;99.90
2723;DHT22;1369;53.216;10.396;2022-10-28T05:47:02;12.50;99.90
2723;DHT22;1369;53.216;10.396;2022-10-28T05:49:27;12.40;99.90
2723;DHT22;1369;53.216;10.396;2022-10-28T05:51:52;12.40;99.90
2723;DHT22;1369;53.216;10.396;2022-10-28T05:54:18;12.40;99.90
2723;DHT22;1369;53.216;10.396;2022-10-28T05:56:43;12.30;99.90
2723;DHT22;1369;53.216;10.396;2022-10-28T05:59:09;12.30;99.90
2723;DHT22;1369;53.216;10.396;2022-10-28T06:01:34;12.20;99.90
2723;DHT22;1369;53.216;10.396;2022-10-28T06:04:00;12.20;99.90
2723;DHT22;1369;53.216;10.396;2022-10-28T06:06:27;12.20;99.90
2723;DHT22;1369;53.216;10.396;2022-10-28T06:08:52;12.10;99.90
2723;DHT22;1369;53.216;10.396;2022-10-28T06:11:18;12.10;99.90
2723;DHT22;1369;53.216;10.396;2022-10-28T06:13:43;12.10;99.90
2723;DHT22;1369;53.216;10.396;2022-10-28T06:16:09;12.10;99.90
2723;DHT22;1369;53.216;10.396;2022-10-28T06:18:34;12.10;99.90
2723;DHT22;1369;53.216;10.396;2022-10-28T06:21:00;12.10;99.90
2723;DHT22;1369;53.216;10.396;2022-10-28T06:23:26;12.10;99.90
2723;DHT22;1369;53.216;10.396;2022-10-28T06:25:58;12.10;99.90
2723;DHT22;1369;53.216;10.396;2022-10-28T06:28:23;12.10;99.90
2723;DHT22;1369;53.216;10.396;2022-10-28T06:30:49;12.00;99.90
2723;DHT22;1369;53.216;10.396;2022-10-28T06:33:14;12.00;99.90
2723;DHT22;1369;53.216;10.396;2022-10-28T06:35:40;12.00;99.90
2723;DHT22;1369;53.216;10.396;2022-10-28T06:38:05;12.00;99.90
2723;DHT22;1369;53.216;10.396;2022-10-28T06:40:31;12.00;99.90
2723;DHT22;1369;53.216;10.396;2022-10-28T06:45:23;11.90;99.90
2723;DHT22;1369;53.216;10.396;2022-10-28T06:47:48;11.90;99.90
2723;DHT22;1369;53.216;10.396;2022-10-28T06:50:14;12.00;99.90
2723;DHT22;1369;53.216;10.396;2022-10-28T06:52:39;12.00;99.90
2723;DHT22;1369;53.216;10.396;2022-10-28T06:55:05;12.00;99.90
2723;DHT22;1369;53.216;10.396;2022-10-28T06:57:31;12.00;99.90
2723;DHT22;1369;53.216;10.396;2022-10-28T06:59:56;12.00;99.90
2723;DHT22;1369;53.216;10.396;2022-10-28T07:02:22;12.00;99.90
2723;DHT22;1369;53.216;10.396;2022-10-28T07:04:47;12.10;99.90
2723;DHT22;1369;53.216;10.396;2022-10-28T07:07:13;12.10;99.90
2723;DHT22;1369;53.216;10.396;2022-10-28T07:09:38;12.10;99.90
2723;DHT22;1369;53.216;10.396;2022-10-28T07:12:05;12.10;99.90
2723;DHT22;1369;53.216;10.396;2022-10-28T07:14:31;12.20;99.90
2723;DHT22;1369;53.216;10.396;2022-10-28T07:16:59;12.20;99.90
2723;DHT22;1369;53.216;10.396;2022-10-28T07:19:24;12.30;99.90
2723;DHT22;1369;53.216;10.396;2022-10-28T07:21:50;12.30;99.90
2723;DHT22;1369;53.216;10.396;2022-10-28T07:24:15;12.40;99.90
2723;DHT22;1369;53.216;10.396;2022-10-28T07:26:41;12.50;99.90
2723;DHT22;1369;53.216;10.396;2022-10-28T07:29:06;12.60;99.90
2723;DHT22;1369;53.216;10.396;2022-10-28T07:31:32;12.70;99.90
2723;DHT22;1369;53.216;10.396;2022-10-28T07:33:58;12.70;99.90
2723;DHT22;1369;53.216;10.396;2022-10-28T07:36:23;12.80;99.90
2723;DHT22;1369;53.216;10.396;2022-10-28T07:38:49;12.90;99.90
2723;DHT22;1369;53.216;10.396;2022-10-28T07:41:20;13.00;99.90
2723;DHT22;1369;53.216;10.396;2022-10-28T07:43:46;13.00;99.90
2723;DHT22;1369;53.216;10.396;2022-10-28T07:46:12;13.10;99.90
2723;DHT22;1369;53.216;10.396;2022-10-28T07:48:39;13.20;99.90
2723;DHT22;1369;53.216;10.396;2022-10-28T07:51:07;13.20;99.90
2723;DHT22;1369;53.216;10.396;2022-10-28T07:53:33;13.30;99.90
2723;DHT22;1369;53.216;10.396;2022-10-28T07:56:04;13.40;99.90
2723;DHT22;1369;53.216;10.396;2022-10-28T07:58:30;13.50;99.90
2723;DHT22;1369;53.216;10.396;2022-10-28T08:00:55;13.60;99.90
2723;DHT22;1369;53.216;10.396;2022-10-28T08:03:21;13.70;99.90
2723;DHT22;1369;53.216;10.396;2022-10-28T08:05:49;13.80;99.90
2723;DHT22;1369;53.216;10.396;2022-10-28T08:08:14;13.80;99.90
2723;DHT22;1369;53.216;10.396;2022-10-28T08:10:40;13.90;99.90
2723;DHT22;1369;53.216;10.396;2022-10-28T08:13:05;13.90;99.90
2723;DHT22;1369;53.216;10.396;2022-10-28T08:15:31;14.10;99.90
2723;DHT22;1369;53.216;10.396;2022-10-28T08:17:57;14.10;99.90
2723;DHT22;1369;53.216;10.396;2022-10-28T08:20:22;14.20;99.90
2723;DHT22;1369;53.216;10.396;2022-10-28T08:22:48;14.30;99.90
2723;DHT22;1369;53.216;10.396;2022-10-28T08:25:14;14.40;99.90
2723;DHT22;1369;53.216;10.396;2022-10-28T08:27:39;14.50;99.90
2723;DHT22;1369;53.216;10.396;2022-10-28T08:30:07;14.60;99.90
2723;DHT22;1369;53.216;10.396;2022-10-28T08:32:33;14.60;99.90
2723;DHT22;1369;53.216;10.396;2022-10-28T08:34:59;14.70;99.90
2723;DHT22;1369;53.216;10.396;2022-10-28T08:37:24;14.80;99.90
2723;DHT22;1369;53.216;10.396;2022-10-28T08:39:50;14.80;99.90
2723;DHT22;1369;53.216;10.396;2022-10-28T08:42:43;14.90;99.90
2723;DHT22;1369;53.216;10.396;2022-10-28T08:45:22;15.00;99.90
2723;DHT22;1369;53.216;10.396;2022-10-28T08:48:07;15.10;99.90
2723;DHT22;1369;53.216;10.396;2022-10-28T08:50:48;15.20;99.90
2723;DHT22;1369;53.216;10.396;2022-10-28T08:53:22;15.40;99.90
2723;DHT22;1369;53.216;10.396;2022-10-28T08:55:50;15.60;99.90
2723;DHT22;1369;53.216;10.396;2022-10-28T08:58:24;15.80;99.90
2723;DHT22;1369;53.216;10.396;2022-10-28T09:00:53;16.10;99.90
2723;DHT22;1369;53.216;10.396;2022-10-28T09:03:27;16.40;99.90
2723;DHT22;1369;53.216;10.396;2022-10-28T09:06:02;16.70;99.90
2723;DHT22;1369;53.216;10.396;2022-10-28T09:08:32;17.00;99.90
2723;DHT22;1369;53.216;10.396;2022-10-28T09:16:42;17.80;99.90
2723;DHT22;1369;53.216;10.396;2022-10-28T09:24:58;18.70;99.90
2723;DHT22;1369;53.216;10.396;2022-10-28T09:27:43;18.80;99.90
2723;DHT22;1369;53.216;10.396;2022-10-28T09:30:39;19.00;99.90
2723;DHT22;1369;53.216;10.396;2022-10-28T09:35:52;19.30;99.90
2723;DHT22;1369;53.216;10.396;2022-10-28T09:38:27;19.40;99.90
2723;DHT22;1369;53.216;10.396;2022-10-28T09:43:31;19.50;99.90
2723;DHT22;1369;53.216;10.396;2022-10-28T09:46:03;19.50;99.90
2723;DHT22;1369;53.216;10.396;2022-10-28T09:48:36;19.60;99.90
2723;DHT22;1369;53.216;10.396;2022-10-28T09:51:03;19.70;99.90
2723;DHT22;1369;53.216;10.396;2022-10-28T09:53:46;19.70;99.90
2723;DHT22;1369;53.216;10.396;2022-10-28T09:56:14;19.70;99.90
2723;DHT22;1369;53.216;10.396;2022-10-28T09:58:43;19.70;99.90
2723;DHT22;1369;53.216;10.396;2022-10-28T10:01:09;19.70;99.90
2723;DHT22;1369;53.216;10.396;2022-10-28T10:03:35;19.80;99.90
2723;DHT22;1369;53.216;10.396;2022-10-28T10:06:12;19.80;99.90
2723;DHT22;1369;53.216;10.396;2022-10-28T10:08:39;19.80;99.90
2723;DHT22;1369;53.216;10.396;2022-10-28T10:11:20;19.80;99.90
2723;DHT22;1369;53.216;10.396;2022-10-28T10:13:49;19.80;99.90
2723;DHT22;1369;53.216;10.396;2022-10-28T10:16:36;19.80;99.90
2723;DHT22;1369;53.216;10.396;2022-10-28T10:19:06;19.80;99.90
2723;DHT22;1369;53.216;10.396;2022-10-28T10:21:44;19.80;99.90
2723;DHT22;1369;53.216;10.396;2022-10-28T10:26:46;19.90;99.90
2723;DHT22;1369;53.216;10.396;2022-10-28T10:29:12;20.00;99.90
2723;DHT22;1369;53.216;10.396;2022-10-28T10:31:38;20.00;99.90
2723;DHT22;1369;53.216;10.396;2022-10-28T10:34:04;20.10;99.90
2723;DHT22;1369;53.216;10.396;2022-10-28T10:36:30;20.10;99.90
2723;DHT22;1369;53.216;10.396;2022-10-28T10:39:00;20.20;99.90
2723;DHT22;1369;53.216;10.396;2022-10-28T10:41:38;20.20;99.90
2723;DHT22;1369;53.216;10.396;2022-10-28T10:44:32;20.30;99.90
2723;DHT22;1369;53.216;10.396;2022-10-28T10:49:27;20.40;99.90
2723;DHT22;1369;53.216;10.396;2022-10-28T10:51:55;20.50;99.90
2723;DHT22;1369;53.216;10.396;2022-10-28T10:54:22;20.50;99.90
2723;DHT22;1369;53.216;10.396;2022-10-28T10:56:48;20.50;99.90
2723;DHT22;1369;53.216;10.396;2022-10-28T10:59:33;20.60;99.90
2723;DHT22;1369;53.216;10.396;2022-10-28T11:02:02;20.60;99.90
2723;DHT22;1369;53.216;10.396;2022-10-28T11:04:28;20.70;99.90
2723;DHT22;1369;53.216;10.396;2022-10-28T11:06:56;20.70;99.90
2723;DHT22;1369;53.216;10.396;2022-10-28T11:09:30;20.80;99.90
2723;DHT22;1369;53.216;10.396;2022-10-28T11:11:58;20.70;99.90
2723;DHT22;1369;53.216;10.396;2022-10-28T11:14:28;20.80;99.90
2723;DHT22;1369;53.216;10.396;2022-10-28T11:17:00;20.80;99.90
2723;DHT22;1369;53.216;10.396;2022-10-28T11:19:34;20.90;99.90
2723;DHT22;1369;53.216;10.396;2022-10-28T11:25:07;21.00;99.90
2723;DHT22;1369;53.216;10.396;2022-10-28T11:28:01;21.10;99.90
2723;DHT22;1369;53.216;10.396;2022-10-28T11:33:56;21.20;99.90
2723;DHT22;1369;53.216;10.396;2022-10-28T11:39:24;21.30;99.90
2723;DHT22;1369;53.216;10.396;2022-10-28T11:44:51;21.40;99.90
2723;DHT22;1369;53.216;10.396;2022-10-28T11:47:25;21.40;99.90
2723;DHT22;1369;53.216;10.396;2022-10-28T11:50:22;21.40;99.90
2723;DHT22;1369;53.216;10.396;2022-10-28T11:55:52;21.40;99.90
2723;DHT22;1369;53.216;10.396;2022-10-28T12:03:54;21.20;99.90
2723;DHT22;1369;53.216;10.396;2022-10-28T12:12:29;21.10;99.90
2723;DHT22;1369;53.216;10.396;2022-10-28T12:20:19;21.10;99.90
2723;DHT22;1369;53.216;10.396;2022-10-28T12:22:51;21.10;99.90
2723;DHT22;1369;53.216;10.396;2022-10-28T12:25:24;21.10;99.90
2723;DHT22;1369;53.216;10.396;2022-10-28T12:27:54;21.20;99.90
2723;DHT22;1369;53.216;10.396;2022-10-28T12:30:25;21.40;99.90
2723;DHT22;1369;53.216;10.396;2022-10-28T12:33:04;21.60;99.90
2723;DHT22;1369;53.216;10.396;2022-10-28T12:35:35;21.80;99.90
2723;DHT22;1369;53.216;10.396;2022-10-28T12:38:29;22.00;99.90
2723;DHT22;1369;53.216;10.396;2022-10-28T12:41:14;22.00;99.90
2723;DHT22;1369;53.216;10.396;2022-10-28T12:43:57;22.00;99.90
2723;DHT22;1369;53.216;10.396;2022-10-28T12:46:45;21.90;99.90
2723;DHT22;1369;53.216;10.396;2022-10-28T12:55:39;21.50;99.90
2723;DHT22;1369;53.216;10.396;2022-10-28T13:00:56;21.20;99.90
2723;DHT22;1369;53.216;10.396;2022-10-28T13:03:24;21.20;99.90
2723;DHT22;1369;53.216;10.396;2022-10-28T13:09:09;21.10;99.90
2723;DHT22;1369;53.216;10.396;2022-10-28T13:17:25;21.40;99.90
2723;DHT22;1369;53.216;10.396;2022-10-28T13:20:11;21.60;99.90
2723;DHT22;1369;53.216;10.396;2022-10-28T13:28:17;21.80;99.90
2723;DHT22;1369;53.216;10.396;2022-10-28T13:30:57;21.90;99.90
2723;DHT22;1369;53.216;10.396;2022-10-28T13:33:25;21.80;99.90
2723;DHT22;1369;53.216;10.396;2022-10-28T13:36:09;21.70;99.90
2723;DHT22;1369;53.216;10.396;2022-10-28T13:38:35;21.60;99.90
2723;DHT22;1369;53.216;10.396;2022-10-28T13:49:27;21.20;99.90
2723;DHT22;1369;53.216;10.396;2022-10-28T13:52:17;21.00;99.90
2723;DHT22;1369;53.216;10.396;2022-10-28T13:57:35;20.80;99.90
2723;DHT22;1369;53.216;10.396;2022-10-28T14:00:32;20.70;99.90
2723;DHT22;1369;53.216;10.396;2022-10-28T14:03:05;20.50;99.90
2723;DHT22;1369;53.216;10.396;2022-10-28T14:05:50;20.40;99.90
2723;DHT22;1369;53.216;10.396;2022-10-28T14:13:34;20.20;99.90
2723;DHT22;1369;53.216;10.396;2022-10-28T14:16:31;20.10;99.90
2723;DHT22;1369;53.216;10.396;2022-10-28T14:21:50;20.00;99.90
2723;DHT22;1369;53.216;10.396;2022-10-28T14:24:41;19.90;99.90
2723;DHT22;1369;53.216;10.396;2022-10-28T14:29:48;19.80;99.90
2723;DHT22;1369;53.216;10.396;2022-10-28T14:35:15;19.70;99.90
2723;DHT22;1369;53.216;10.396;2022-10-28T14:40:47;19.60;99.90
2723;DHT22;1369;53.216;10.396;2022-10-28T14:43:20;19.60;99.90
2723;DHT22;1369;53.216;10.396;2022-10-28T14:51:25;19.40;99.90
2723;DHT22;1369;53.216;10.396;2022-10-28T14:53:55;19.30;99.90
2723;DHT22;1369;53.216;10.396;2022-10-28T14:56:27;19.30;99.90
2723;DHT22;1369;53.216;10.396;2022-10-28T14:59:21;19.20;99.90
2723;DHT22;1369;53.216;10.396;2022-10-28T15:02:00;19.10;99.90
2723;DHT22;1369;53.216;10.396;2022-10-28T15:04:42;19.10;99.90
2723;DHT22;1369;53.216;10.396;2022-10-28T15:07:17;19.00;99.90
2723;DHT22;1369;53.216;10.396;2022-10-28T15:09:44;18.90;99.90
2723;DHT22;1369;53.216;10.396;2022-10-28T15:12:12;18.90;99.90
2723;DHT22;1369;53.216;10.396;2022-10-28T15:14:45;18.80;99.90
2723;DHT22;1369;53.216;10.396;2022-10-28T15:17:20;18.80;99.90
2723;DHT22;1369;53.216;10.396;2022-10-28T15:19:50;18.70;99.90
2723;DHT22;1369;53.216;10.396;2022-10-28T15:22:23;18.60;99.90
2723;DHT22;1369;53.216;10.396;2022-10-28T15:25:00;18.60;99.90
2723;DHT22;1369;53.216;10.396;2022-10-28T15:27:37;18.50;99.90
2723;DHT22;1369;53.216;10.396;2022-10-28T15:32:38;18.30;99.90
2723;DHT22;1369;53.216;10.396;2022-10-28T15:35:23;18.20;99.90
2723;DHT22;1369;53.216;10.396;2022-10-28T15:37:51;18.20;99.90
2723;DHT22;1369;53.216;10.396;2022-10-28T15:40:26;18.10;99.90
2723;DHT22;1369;53.216;10.396;2022-10-28T15:43:03;18.00;99.90
2723;DHT22;1369;53.216;10.396;2022-10-28T15:45:34;17.90;99.90
2723;DHT22;1369;53.216;10.396;2022-10-28T15:48:01;17.80;99.90
2723;DHT22;1369;53.216;10.396;2022-10-28T15:50:34;17.80;99.90
2723;DHT22;1369;53.216;10.396;2022-10-28T15:55:35;17.70;99.90
2723;DHT22;1369;53.216;10.396;2022-10-28T16:00:55;17.60;99.90
2723;DHT22;1369;53.216;10.396;2022-10-28T16:03:27;17.60;99.90
2723;DHT22;1369;53.216;10.396;2022-10-28T16:06:04;17.60;99.90
2723;DHT22;1369;53.216;10.396;2022-10-28T16:08:31;17.50;99.90
2723;DHT22;1369;53.216;10.396;2022-10-28T16:11:00;17.50;99.90
2723;DHT22;1369;53.216;10.396;2022-10-28T16:13:36;17.40;99.90
2723;DHT22;1369;53.216;10.396;2022-10-28T16:16:09;17.40;99.90
2723;DHT22;1369;53.216;10.396;2022-10-28T16:18:42;17.30;99.90
2723;DHT22;1369;53.216;10.396;2022-10-28T16:21:18;17.30;99.90
2723;DHT22;1369;53.216;10.396;2022-10-28T16:23:47;17.20;99.90
2723;DHT22;1369;53.216;10.396;2022-10-28T16:26:13;17.10;99.90
2723;DHT22;1369;53.216;10.396;2022-10-28T16:28:39;17.10;99.90
2723;DHT22;1369;53.216;10.396;2022-10-28T16:31:05;17.00;99.90
2723;DHT22;1369;53.216;10.396;2022-10-28T16:33:36;17.00;99.90
2723;DHT22;1369;53.216;10.396;2022-10-28T16:36:02;16.90;99.90
2723;DHT22;1369;53.216;10.396;2022-10-28T16:38:29;16.90;99.90
2723;DHT22;1369;53.216;10.396;2022-10-28T16:40:56;16.90;99.90
2723;DHT22;1369;53.216;10.396;2022-10-28T16:43:24;16.80;99.90
2723;DHT22;1369;53.216;10.396;2022-10-28T16:45:51;16.80;99.90
2723;DHT22;1369;53.216;10.396;2022-10-28T16:48:19;16.70;99.90
2723;DHT22;1369;53.216;10.396;2022-10-28T16:50:50;16.70;99.90
2723;DHT22;1369;53.216;10.396;2022-10-28T16:53:16;16.70;99.90
2723;DHT22;1369;53.216;10.396;2022-10-28T16:55:42;16.60;99.90
2723;DHT22;1369;53.216;10.396;2022-10-28T16:58:08;16.60;99.90
2723;DHT22;1369;53.216;10.396;2022-10-28T17:00:34;16.60;99.90
2723;DHT22;1369;53.216;10.396;2022-10-28T17:03:00;16.60;99.90
2723;DHT22;1369;53.216;10.396;2022-10-28T17:05:25;16.50;99.90
2723;DHT22;1369;53.216;10.396;2022-10-28T17:07:51;16.50;99.90
2723;DHT22;1369;53.216;10.396;2022-10-28T17:10:20;16.50;99.90
2723;DHT22;1369;53.216;10.396;2022-10-28T17:12:46;16.50;99.90
2723;DHT22;1369;53.216;10.396;2022-10-28T17:15:11;16.50;99.90
2723;DHT22;1369;53.216;10.396;2022-10-28T17:17:37;16.50;99.90
2723;DHT22;1369;53.216;10.396;2022-10-28T17:20:03;16.50;99.90
2723;DHT22;1369;53.216;10.396;2022-10-28T17:22:29;16.50;99.90
2723;DHT22;1369;53.216;10.396;2022-10-28T17:24:54;16.40;99.90
2723;DHT22;1369;53.216;10.396;2022-10-28T17:27:20;16.40;99.90
2723;DHT22;1369;53.216;10.396;2022-10-28T17:29:45;16.40;99.90
2723;DHT22;1369;53.216;10.396;2022-10-28T17:32:11;16.30;99.90
2723;DHT22;1369;53.216;10.396;2022-10-28T17:34:36;16.30;99.90
2723;DHT22;1369;53.216;10.396;2022-10-28T17:37:02;16.30;99.90
2723;DHT22;1369;53.216;10.396;2022-10-28T17:39:28;16.20;99.90
2723;DHT22;1369;53.216;10.396;2022-10-28T17:41:54;16.20;99.90
2723;DHT22;1369;53.216;10.396;2022-10-28T17:44:19;16.20;99.90
2723;DHT22;1369;53.216;10.396;2022-10-28T17:46:47;16.20;99.90
2723;DHT22;1369;53.216;10.396;2022-10-28T17:49:13;16.10;99.90
2723;DHT22;1369;53.216;10.396;2022-10-28T17:51:39;16.10;99.90
2723;DHT22;1369;53.216;10.396;2022-10-28T17:54:05;16.10;99.90
2723;DHT22;1369;53.216;10.396;2022-10-28T17:56:31;16.10;99.90
2723;DHT22;1369;53.216;10.396;2022-10-28T17:58:57;16.10;99.90
2723;DHT22;1369;53.216;10.396;2022-10-28T18:01:24;16.00;99.90
2723;DHT22;1369;53.216;10.396;2022-10-28T18:03:49;16.00;99.90
2723;DHT22;1369;53.216;10.396;2022-10-28T18:06:15;16.00;99.90
2723;DHT22;1369;53.216;10.396;2022-10-28T18:08:42;16.00;99.90
2723;DHT22;1369;53.216;10.396;2022-10-28T18:11:09;16.00;99.90
2723;DHT22;1369;53.216;10.396;2022-10-28T18:13:37;16.00;99.90
2723;DHT22;1369;53.216;10.396;2022-10-28T18:16:09;16.00;99.90
2723;DHT22;1369;53.216;10.396;2022-10-28T18:18:35;16.00;99.90
2723;DHT22;1369;53.216;10.396;2022-10-28T18:21:00;16.00;99.90
2723;DHT22;1369;53.216;10.396;2022-10-28T18:23:26;16.00;99.90
2723;DHT22;1369;53.216;10.396;2022-10-28T18:25:59;16.00;99.90
2723;DHT22;1369;53.216;10.396;2022-10-28T18:28:26;16.00;99.90
2723;DHT22;1369;53.216;10.396;2022-10-28T18:30:52;16.00;99.90
2723;DHT22;1369;53.216;10.396;2022-10-28T18:33:17;16.00;99.90
2723;DHT22;1369;53.216;10.396;2022-10-28T18:35:43;16.00;99.90
2723;DHT22;1369;53.216;10.396;2022-10-28T18:38:08;15.90;99.90
2723;DHT22;1369;53.216;10.396;2022-10-28T18:40:34;15.90;99.90